createdAt,value
2018-08-16T00:02:24.506Z,87.59
2018-08-16T00:04:58.140Z,87.91
2018-08-16T00:07:30.724Z,87.96
2018-08-16T00:10:13.004Z,88.04
2018-08-16T00:12:48.476Z,88.00
2018-08-16T00:15:22.041Z,88.10
2018-08-16T00:17:54.956Z,88.20
2018-08-16T00:20:28.181Z,88.52
2018-08-16T00:23:01.568Z,88.67
2018-08-16T00:25:34.509Z,88.99
2018-08-16T00:28:08.633Z,89.09
2018-08-16T00:30:41.977Z,89.40
2018-08-16T00:33:14.919Z,89.38
2018-08-16T00:35:47.437Z,89.38
2018-08-16T00:38:21.675Z,89.79
2018-08-16T00:40:55.192Z,90.02
2018-08-16T00:43:29.605Z,90.11
2018-08-16T00:46:02.017Z,90.20
2018-08-16T00:48:34.804Z,90.38
2018-08-16T00:51:09.149Z,90.66
2018-08-16T00:53:53.225Z,90.70
2018-08-16T00:56:26.634Z,90.62
2018-08-16T00:58:59.913Z,90.61
2018-08-16T01:01:36.369Z,90.73
2018-08-16T01:04:10.585Z,90.70
2018-08-16T01:06:44.742Z,90.79
2018-08-16T01:09:17.946Z,90.72
2018-08-16T01:11:53.713Z,90.51
2018-08-16T01:14:28.853Z,90.46
2018-08-16T01:17:02.569Z,90.45
2018-08-16T01:19:36.413Z,90.66
2018-08-16T01:22:09.593Z,90.99
2018-08-16T01:24:44.887Z,91.21
2018-08-16T01:27:17.560Z,91.28
2018-08-16T01:29:50.124Z,91.51
2018-08-16T01:32:23.112Z,91.52
2018-08-16T01:34:56.562Z,91.47
2018-08-16T01:37:29.022Z,91.60
2018-08-16T01:40:01.980Z,91.78
2018-08-16T01:42:34.840Z,91.74
2018-08-16T01:45:08.261Z,91.69
2018-08-16T01:47:41.897Z,91.69
2018-08-16T01:50:14.753Z,91.69
2018-08-16T01:52:47.887Z,91.86
2018-08-16T01:55:21.677Z,91.88
2018-08-16T01:57:55.947Z,91.89
2018-08-16T02:00:28.472Z,91.88
2018-08-16T02:03:01.912Z,91.82
2018-08-16T02:05:35.297Z,91.75
2018-08-16T02:08:08.025Z,91.75
2018-08-16T02:10:42.243Z,91.83
2018-08-16T02:13:17.444Z,91.86
2018-08-16T02:15:50.079Z,91.78
2018-08-16T02:18:23.929Z,91.92
2018-08-16T02:20:56.572Z,92.00
2018-08-16T02:23:31.498Z,92.10
2018-08-16T02:26:05.935Z,92.27
2018-08-16T02:28:42.636Z,92.30
2018-08-16T02:31:17.347Z,92.37
2018-08-16T02:33:52.398Z,92.30
2018-08-16T02:36:25.335Z,92.33
2018-08-16T02:39:01.200Z,92.62
2018-08-16T02:41:35.743Z,92.60
2018-08-16T02:44:10.693Z,92.49
2018-08-16T02:46:44.404Z,92.37
2018-08-16T02:49:17.012Z,92.23
2018-08-16T02:51:51.808Z,92.12
2018-08-16T02:54:24.463Z,92.08
2018-08-16T02:56:57.104Z,92.24
2018-08-16T02:59:29.872Z,92.37
2018-08-16T03:04:35.183Z,92.51
2018-08-16T03:07:08.034Z,92.49
2018-08-16T03:09:40.666Z,92.40
2018-08-16T03:12:13.750Z,92.47
2018-08-16T03:14:46.925Z,92.57
2018-08-16T03:17:20.552Z,92.66
2018-08-16T03:19:53.306Z,92.75
2018-08-16T03:22:26.732Z,92.78
2018-08-16T03:25:00.381Z,92.76
2018-08-16T03:27:32.728Z,92.66
2018-08-16T03:30:37.261Z,92.62
2018-08-16T03:33:10.268Z,92.64
2018-08-16T03:35:42.964Z,92.64
2018-08-16T03:38:15.844Z,92.86
2018-08-16T03:40:48.769Z,93.04
2018-08-16T03:43:21.655Z,93.11
2018-08-16T03:45:54.292Z,92.99
2018-08-16T03:48:27.583Z,93.06
2018-08-16T03:51:01.394Z,92.86
2018-08-16T03:53:34.068Z,92.70
2018-08-16T03:56:07.759Z,92.67
2018-08-16T03:58:42.720Z,92.69
2018-08-16T04:01:16.404Z,92.73
2018-08-16T04:03:49.590Z,92.75
2018-08-16T04:06:22.738Z,92.78
2018-08-16T04:08:56.080Z,92.85
2018-08-16T04:11:29.756Z,92.97
2018-08-16T04:14:07.784Z,92.93
2018-08-16T04:16:40.172Z,92.96
2018-08-16T04:19:12.773Z,93.03
2018-08-16T04:21:48.349Z,93.12
2018-08-16T04:24:21.996Z,93.24
2018-08-16T04:26:54.578Z,93.26
2018-08-16T04:29:27.477Z,93.20
2018-08-16T04:32:00.149Z,93.19
2018-08-16T04:34:32.647Z,93.41
2018-08-16T04:37:07.072Z,93.38
2018-08-16T04:39:39.659Z,93.27
2018-08-16T04:42:13.009Z,93.36
2018-08-16T04:44:47.888Z,93.40
2018-08-16T04:47:20.453Z,93.32
2018-08-16T04:49:53.094Z,93.32
2018-08-16T04:52:26.027Z,93.36
2018-08-16T04:54:58.653Z,93.31
2018-08-16T04:57:31.380Z,93.30
2018-08-16T05:00:06.688Z,93.29
2018-08-16T05:02:39.857Z,93.54
2018-08-16T05:05:12.868Z,93.81
2018-08-16T05:07:47.689Z,94.00
2018-08-16T05:10:23.564Z,94.13
2018-08-16T05:12:56.629Z,94.24
2018-08-16T05:15:29.650Z,94.34
2018-08-16T05:18:06.773Z,94.14
2018-08-16T05:20:40.101Z,94.10
2018-08-16T05:23:13.919Z,94.18
2018-08-16T05:25:46.660Z,94.48
2018-08-16T05:28:19.897Z,94.75
2018-08-16T05:30:52.676Z,94.93
2018-08-16T05:33:26.157Z,95.09
2018-08-16T05:35:58.760Z,95.41
2018-08-16T05:38:32.674Z,95.67
2018-08-16T05:41:05.344Z,95.84
2018-08-16T05:43:37.929Z,95.86
2018-08-16T05:46:10.879Z,95.84
2018-08-16T05:48:43.462Z,95.88
2018-08-16T05:51:17.748Z,95.91
2018-08-16T05:53:55.876Z,95.92
2018-08-16T05:56:29.444Z,95.89
2018-08-16T05:59:01.979Z,95.86
2018-08-16T06:01:35.784Z,95.78
2018-08-16T06:04:08.296Z,95.68
2018-08-16T06:06:42.230Z,95.56
2018-08-16T06:09:15.340Z,95.41
2018-08-16T06:11:48.148Z,95.03
2018-08-16T06:14:20.717Z,94.33
2018-08-16T06:16:53.602Z,93.55
2018-08-16T06:19:27.168Z,92.81
2018-08-16T06:21:59.836Z,92.00
2018-08-16T06:24:33.347Z,91.27
2018-08-16T06:27:06.752Z,90.81
2018-08-16T06:29:40.085Z,90.41
2018-08-16T06:32:15.514Z,90.17
2018-08-16T06:34:48.076Z,89.92
2018-08-16T06:37:21.944Z,89.54
2018-08-16T06:39:54.533Z,89.16
2018-08-16T06:42:27.188Z,88.95
2018-08-16T06:45:00.949Z,88.65
2018-08-16T06:47:34.233Z,88.58
2018-08-16T06:50:07.680Z,88.23
2018-08-16T06:52:41.561Z,87.64
2018-08-16T06:55:14.824Z,87.51
2018-08-16T06:57:49.684Z,86.72
2018-08-16T07:00:22.754Z,85.36
2018-08-16T07:02:56.802Z,84.85
2018-08-16T07:05:30.177Z,84.71
2018-08-16T07:08:02.807Z,83.97
2018-08-16T07:10:35.289Z,83.09
2018-08-16T07:13:09.616Z,82.88
2018-08-16T07:15:44.830Z,82.80
2018-08-16T07:18:17.790Z,81.64
2018-08-16T07:20:51.749Z,81.60
2018-08-16T07:23:26.366Z,80.07
2018-08-16T07:25:59.049Z,78.28
2018-08-16T07:28:31.920Z,78.36
2018-08-16T07:31:04.593Z,73.90
2018-08-16T07:33:37.102Z,70.11
2018-08-16T07:36:10.090Z,67.71
2018-08-16T07:38:43.954Z,64.94
2018-08-16T07:41:16.476Z,63.69
2018-08-16T07:43:52.528Z,61.85
2018-08-16T07:46:25.114Z,60.48
2018-08-16T07:48:57.970Z,60.38
2018-08-16T07:51:32.263Z,59.62
2018-08-16T07:54:04.909Z,58.61
2018-08-16T07:56:38.856Z,57.43
2018-08-16T07:59:12.897Z,58.47
2018-08-16T08:01:45.509Z,59.69
2018-08-16T08:04:18.487Z,60.43
2018-08-16T08:06:52.060Z,60.14
2018-08-16T08:09:25.048Z,60.17
2018-08-16T08:11:58.032Z,60.08
2018-08-16T08:14:34.149Z,59.60
2018-08-16T08:17:07.730Z,59.61
2018-08-16T08:19:49.768Z,59.71
2018-08-16T08:22:25.125Z,59.99
2018-08-16T08:24:58.981Z,60.05
2018-08-16T08:27:33.803Z,59.84
2018-08-16T08:30:13.413Z,59.38
2018-08-16T08:32:48.530Z,59.29
2018-08-16T08:35:22.618Z,59.70
2018-08-16T08:38:14.513Z,59.89
2018-08-16T08:40:48.664Z,60.14
2018-08-16T08:43:47.900Z,60.36
2018-08-16T08:46:21.270Z,60.57
2018-08-16T08:48:54.121Z,60.67
2018-08-16T08:51:28.846Z,60.89
2018-08-16T08:54:42.706Z,61.23
2018-08-16T08:57:38.175Z,61.48
2018-08-16T09:00:17.842Z,61.59
2018-08-16T09:02:52.740Z,61.53
2018-08-16T09:05:27.882Z,59.30
2018-08-16T09:08:11.019Z,56.04
2018-08-16T09:11:09.732Z,55.19
2018-08-16T09:14:06.176Z,54.13
2018-08-16T09:16:42.307Z,52.82
2018-08-16T09:19:15.802Z,52.21
2018-08-16T09:21:49.548Z,51.89
2018-08-16T09:24:30.086Z,51.61
2018-08-16T09:27:04.161Z,52.04
2018-08-16T09:30:26.385Z,50.79
2018-08-16T09:33:34.370Z,49.59
2018-08-16T09:36:07.044Z,48.48
2018-08-16T09:38:40.465Z,49.50
2018-08-16T09:41:13.065Z,49.75
2018-08-16T09:43:47.006Z,48.68
2018-08-16T09:47:17.127Z,49.00
2018-08-16T09:49:50.696Z,48.94
2018-08-16T09:52:24.139Z,48.51
2018-08-16T09:54:57.665Z,48.30
2018-08-16T09:57:35.123Z,48.84
2018-08-16T10:00:07.872Z,48.38
2018-08-16T10:02:42.716Z,47.62
2018-08-16T10:05:22.701Z,47.39
2018-08-16T10:07:58.555Z,47.60
2018-08-16T10:10:35.912Z,48.55
2018-08-16T10:13:11.357Z,49.02
2018-08-16T10:15:44.793Z,48.67
2018-08-16T10:18:18.961Z,46.64
2018-08-16T10:20:53.003Z,46.43
2018-08-16T10:23:25.565Z,45.73
2018-08-16T10:26:02.442Z,45.69
2018-08-16T10:28:37.451Z,46.07
2018-08-16T10:31:11.430Z,46.04
2018-08-16T10:33:44.984Z,46.13
2018-08-16T10:36:17.710Z,44.44
2018-08-16T10:38:51.972Z,43.23
2018-08-16T10:41:26.118Z,43.73
2018-08-16T10:43:58.793Z,43.77
2018-08-16T10:46:32.152Z,44.09
2018-08-16T10:49:05.917Z,43.72
2018-08-16T10:51:39.484Z,43.50
2018-08-16T10:54:13.956Z,43.09
2018-08-16T10:56:46.755Z,42.92
2018-08-16T10:59:20.228Z,43.03
2018-08-16T11:01:54.700Z,43.33
2018-08-16T11:04:28.644Z,43.72
2018-08-16T11:07:01.548Z,42.65
2018-08-16T11:09:34.072Z,41.83
2018-08-16T11:12:08.084Z,41.86
2018-08-16T11:14:41.907Z,42.73
2018-08-16T11:17:15.220Z,42.29
2018-08-16T11:19:49.545Z,42.37
2018-08-16T11:22:28.625Z,42.32
2018-08-16T11:25:06.260Z,42.02
2018-08-16T11:27:41.802Z,40.93
2018-08-16T11:30:18.953Z,39.74
2018-08-16T11:32:51.380Z,39.24
2018-08-16T11:35:23.993Z,39.28
2018-08-16T11:37:57.433Z,39.67
2018-08-16T11:40:30.610Z,39.99
2018-08-16T11:43:06.509Z,40.37
2018-08-16T11:45:49.738Z,40.24
2018-08-16T11:48:23.833Z,39.38
2018-08-16T11:50:56.662Z,39.12
2018-08-16T11:53:33.196Z,38.89
2018-08-16T11:56:07.867Z,38.77
2018-08-16T11:58:41.047Z,38.11
2018-08-16T12:01:14.740Z,38.10
2018-08-16T12:03:47.562Z,37.82
2018-08-16T12:06:24.373Z,37.16
2018-08-16T12:08:56.737Z,37.04
2018-08-16T12:11:29.647Z,36.03
2018-08-16T12:14:03.845Z,36.40
2018-08-16T12:16:38.043Z,35.81
2018-08-16T12:19:14.311Z,35.69
2018-08-16T12:21:50.123Z,35.52
2018-08-16T12:24:26.135Z,34.62
2018-08-16T12:27:03.636Z,34.55
2018-08-16T12:29:49.358Z,32.68
2018-08-16T12:32:27.682Z,33.06
2018-08-16T12:35:03.603Z,33.15
2018-08-16T12:37:49.586Z,33.29
2018-08-16T12:40:23.837Z,32.21
2018-08-16T12:42:57.477Z,32.98
2018-08-16T12:45:31.161Z,32.94
2018-08-16T12:48:03.797Z,32.80
2018-08-16T12:50:54.376Z,32.29
2018-08-16T12:53:36.679Z,31.27
2018-08-16T12:56:12.437Z,31.23
2018-08-16T12:58:51.326Z,31.47
2018-08-16T13:01:32.964Z,32.21
2018-08-16T13:04:10.456Z,31.89
2018-08-16T13:06:49.610Z,31.03
2018-08-16T13:09:31.230Z,31.26
2018-08-16T13:12:07.010Z,31.20
2018-08-16T13:14:45.435Z,30.81
2018-08-16T13:17:17.884Z,30.33
2018-08-16T13:19:55.808Z,29.75
2018-08-16T13:22:30.309Z,31.45
2018-08-16T13:25:06.092Z,31.65
2018-08-16T13:27:43.154Z,31.96
2018-08-16T13:30:18.931Z,32.16
2018-08-16T13:32:53.297Z,31.95
2018-08-16T13:35:31.924Z,32.16
2018-08-16T13:38:10.726Z,31.98
2018-08-16T13:40:47.227Z,32.03
2018-08-16T13:43:23.992Z,32.25
2018-08-16T13:46:04.909Z,31.66
2018-08-16T13:48:39.728Z,31.30
2018-08-16T13:51:28.062Z,30.29
2018-08-16T13:54:05.117Z,29.61
2018-08-16T13:56:37.676Z,28.43
2018-08-16T13:59:13.433Z,28.02
2018-08-16T14:01:46.139Z,28.19
2018-08-16T14:04:18.690Z,28.95
2018-08-16T14:06:55.564Z,28.53
2018-08-16T14:09:28.374Z,29.07
2018-08-16T14:12:04.240Z,29.33
2018-08-16T14:14:42.367Z,29.29
2018-08-16T14:17:15.077Z,29.77
2018-08-16T14:19:48.865Z,29.84
2018-08-16T14:22:22.756Z,28.50
2018-08-16T14:24:55.353Z,28.79
2018-08-16T14:27:28.459Z,28.73
2018-08-16T14:30:03.312Z,28.92
2018-08-16T14:32:36.545Z,28.44
2018-08-16T14:35:10.385Z,28.57
2018-08-16T14:37:43.161Z,27.63
2018-08-16T14:40:16.810Z,27.86
2018-08-16T14:42:49.285Z,28.16
2018-08-16T14:45:25.187Z,28.16
2018-08-16T14:48:08.683Z,28.23
2018-08-16T14:50:42.078Z,28.83
2018-08-16T14:53:16.458Z,28.96
2018-08-16T14:55:51.265Z,28.15
2018-08-16T14:58:27.886Z,27.40
2018-08-16T15:01:02.740Z,27.50
2018-08-16T15:03:38.741Z,28.09
2018-08-16T15:06:14.416Z,28.58
2018-08-16T15:08:48.239Z,28.01
2018-08-16T15:11:22.973Z,27.54
2018-08-16T15:13:57.766Z,27.47
2018-08-16T15:16:34.156Z,27.06
2018-08-16T15:19:08.664Z,26.99
2018-08-16T15:21:41.262Z,27.08
2018-08-16T15:24:20.096Z,27.57
2018-08-16T15:26:55.752Z,27.96
2018-08-16T15:29:28.339Z,28.31
2018-08-16T15:32:10.467Z,28.74
2018-08-16T15:34:50.432Z,28.59
2018-08-16T15:37:24.150Z,28.33
2018-08-16T15:39:57.943Z,28.52
2018-08-16T15:42:32.019Z,28.72
2018-08-16T15:45:07.446Z,28.42
2018-08-16T15:47:41.200Z,28.12
2018-08-16T15:50:19.678Z,28.18
2018-08-16T15:52:52.859Z,27.97
2018-08-16T15:55:25.847Z,27.73
2018-08-16T15:57:59.126Z,27.46
2018-08-16T16:00:34.062Z,27.41
2018-08-16T16:03:07.646Z,27.86
2018-08-16T16:05:40.482Z,28.09
2018-08-16T16:08:14.534Z,28.22
2018-08-16T16:10:51.803Z,28.20
2018-08-16T16:13:28.146Z,28.40
2018-08-16T16:16:01.027Z,28.28
2018-08-16T16:18:49.667Z,28.33
2018-08-16T16:22:08.788Z,28.51
2018-08-16T16:27:37.400Z,29.01
2018-08-16T16:30:21.533Z,29.47
2018-08-16T16:33:08.253Z,29.62
2018-08-16T16:35:44.170Z,29.03
2018-08-16T16:38:19.520Z,29.32
2018-08-16T16:40:57.894Z,29.73
2018-08-16T16:43:36.285Z,30.14
2018-08-16T16:46:12.979Z,30.11
2018-08-16T16:48:51.225Z,29.88
2018-08-16T16:51:44.493Z,29.90
2018-08-16T16:54:21.672Z,30.59
2018-08-16T16:56:56.563Z,30.75
2018-08-16T16:59:56.418Z,30.55
2018-08-16T17:02:40.388Z,30.92
2018-08-16T17:05:31.183Z,31.32
2018-08-16T17:08:10.545Z,31.76
2018-08-16T17:10:52.617Z,32.44
2018-08-16T17:13:30.636Z,33.14
2018-08-16T17:16:15.795Z,33.80
2018-08-16T17:19:14.808Z,34.41
2018-08-16T17:22:22.880Z,34.97
2018-08-16T17:24:59.009Z,35.45
2018-08-16T17:27:55.256Z,35.36
2018-08-16T17:30:44.046Z,35.92
2018-08-16T17:33:23.708Z,36.35
2018-08-16T17:36:05.000Z,36.49
2018-08-16T17:38:39.830Z,36.78
2018-08-16T17:41:15.042Z,37.39
2018-08-16T17:43:48.469Z,37.89
2018-08-16T17:46:24.737Z,38.40
2018-08-16T17:48:59.454Z,38.70
2018-08-16T17:51:37.394Z,39.03
2018-08-16T17:54:09.958Z,39.32
2018-08-16T17:56:45.189Z,39.79
2018-08-16T17:59:18.168Z,40.09
2018-08-16T18:01:52.905Z,40.54
2018-08-16T18:04:29.388Z,41.03
2018-08-16T18:07:08.718Z,41.41
2018-08-16T18:09:43.906Z,41.74
2018-08-16T18:12:38.677Z,42.08
2018-08-16T18:15:32.570Z,42.61
2018-08-16T18:18:27.465Z,42.97
2018-08-16T18:21:02.484Z,43.45
2018-08-16T18:23:44.834Z,43.82
2018-08-16T18:26:40.361Z,44.20
2018-08-16T18:29:17.521Z,44.57
2018-08-16T18:31:51.337Z,45.00
2018-08-16T18:34:43.602Z,45.40
2018-08-16T18:37:22.650Z,45.81
2018-08-16T18:40:00.148Z,46.16
2018-08-16T18:42:58.496Z,46.54
2018-08-16T18:45:37.992Z,47.20
2018-08-16T18:48:14.656Z,47.54
2018-08-16T18:50:48.847Z,47.79
2018-08-16T18:53:25.407Z,47.95
2018-08-16T18:56:04.292Z,48.45
2018-08-16T18:58:38.164Z,48.78
2018-08-16T19:01:20.230Z,49.26
2018-08-16T19:03:53.747Z,49.73
2018-08-16T19:06:29.514Z,50.12
2018-08-16T19:09:07.402Z,50.75
2018-08-16T19:11:42.462Z,51.24
2018-08-16T19:14:16.704Z,51.68
2018-08-16T19:16:51.778Z,52.03
2018-08-16T19:19:32.131Z,52.49
2018-08-16T19:22:08.064Z,53.21
2018-08-16T19:24:42.310Z,53.28
2018-08-16T19:27:22.426Z,53.54
2018-08-16T19:29:57.602Z,53.75
2018-08-16T19:32:30.879Z,54.05
2018-08-16T19:35:08.289Z,54.44
2018-08-16T19:37:45.750Z,54.62
2018-08-16T19:40:20.207Z,54.82
2018-08-16T19:42:54.652Z,55.16
2018-08-16T19:45:38.789Z,55.55
2018-08-16T19:48:12.932Z,55.80
2018-08-16T19:50:48.582Z,56.25
2018-08-16T19:53:23.117Z,56.66
2018-08-16T19:55:58.431Z,56.66
2018-08-16T19:58:31.828Z,56.83
2018-08-16T20:01:08.374Z,56.97
2018-08-16T20:03:44.988Z,57.25
2018-08-16T20:06:20.537Z,57.54
2018-08-16T20:08:54.346Z,57.90
2018-08-16T20:11:31.728Z,58.40
2018-08-16T20:14:14.989Z,59.20
2018-08-16T20:16:51.628Z,59.58
2018-08-16T20:19:29.725Z,59.63
2018-08-16T20:22:14.478Z,59.77
2018-08-16T20:24:49.923Z,59.78
2018-08-16T20:27:28.955Z,59.93
2018-08-16T20:30:06.332Z,59.95
2018-08-16T20:32:45.054Z,60.18
2018-08-16T20:35:19.691Z,60.29
2018-08-16T20:38:06.201Z,60.38
2018-08-16T20:40:42.051Z,60.56
2018-08-16T20:43:16.936Z,60.81
2018-08-16T20:45:53.259Z,61.26
2018-08-16T20:48:29.884Z,61.25
2018-08-16T20:51:06.333Z,61.32
2018-08-16T20:53:41.611Z,61.51
2018-08-16T20:56:19.348Z,61.86
2018-08-16T20:58:54.676Z,62.05
2018-08-16T21:01:31.345Z,62.27
2018-08-16T21:04:05.993Z,62.23
2018-08-16T21:06:51.886Z,62.38
2018-08-16T21:09:27.233Z,62.76
2018-08-16T21:12:06.494Z,63.09
2018-08-16T21:14:41.702Z,63.21
2018-08-16T21:17:28.867Z,63.52
2018-08-16T21:20:01.655Z,63.49
2018-08-16T21:25:46.965Z,64.04
2018-08-16T21:28:23.647Z,63.80
2018-08-16T21:34:14.028Z,63.87
2018-08-16T21:36:54.061Z,64.06
2018-08-16T21:39:33.679Z,64.23
2018-08-16T21:42:11.711Z,64.62
2018-08-16T21:44:50.143Z,64.43
2018-08-16T21:47:24.886Z,64.38
2018-08-16T21:50:00.928Z,64.41
2018-08-16T21:52:35.424Z,64.47
2018-08-16T21:55:09.089Z,64.41
2018-08-16T21:57:44.801Z,64.27
2018-08-16T22:04:09.789Z,64.11
2018-08-16T22:07:02.573Z,64.06
2018-08-16T22:12:47.429Z,64.27
2018-08-16T22:15:22.678Z,64.66
2018-08-16T22:18:15.315Z,64.65
2018-08-16T22:20:49.827Z,64.79
2018-08-16T22:23:27.902Z,64.75
2018-08-16T22:26:02.425Z,64.52
2018-08-16T22:28:36.218Z,64.33
2018-08-16T22:31:09.444Z,64.51
2018-08-16T22:33:44.454Z,64.73
2018-08-16T22:36:17.661Z,64.87
2018-08-16T22:38:51.839Z,65.22
2018-08-16T22:41:29.044Z,65.32
2018-08-16T22:44:03.428Z,65.59
2018-08-16T22:46:37.352Z,65.66
2018-08-16T22:49:10.935Z,65.69
2018-08-16T22:51:48.263Z,65.86
2018-08-16T22:54:22.205Z,65.71
2018-08-16T22:56:54.960Z,65.91
2018-08-16T22:59:28.413Z,65.89
2018-08-16T23:02:03.320Z,66.12
2018-08-16T23:04:35.882Z,66.34
2018-08-16T23:07:12.867Z,66.39
2018-08-16T23:09:46.452Z,66.37
2018-08-16T23:12:20.772Z,66.50
2018-08-16T23:14:57.802Z,66.26
2018-08-16T23:17:30.807Z,66.00
2018-08-16T23:20:06.656Z,65.80
2018-08-16T23:22:40.405Z,65.92
2018-08-16T23:25:17.932Z,66.06
2018-08-16T23:27:58.352Z,66.24
2018-08-16T23:30:32.973Z,66.39
2018-08-16T23:33:05.776Z,66.69
2018-08-16T23:35:42.163Z,66.98
2018-08-16T23:38:16.057Z,66.99
2018-08-16T23:40:48.551Z,66.94
2018-08-16T23:43:21.937Z,67.07
2018-08-16T23:45:55.172Z,67.34
2018-08-16T23:48:33.060Z,67.37
2018-08-16T23:51:07.002Z,67.51
2018-08-16T23:53:41.725Z,67.41
2018-08-16T23:56:15.360Z,67.32
2018-08-16T23:58:50.976Z,67.31
